createdAt,value
2023-02-14T00:01:38.201Z,19.42
2023-02-14T00:04:44.399Z,18.83
2023-02-14T00:07:46.808Z,15.23
2023-02-14T00:10:49.329Z,17.95
2023-02-14T00:14:10.288Z,18.73
2023-02-14T00:17:13.046Z,18.17
2023-02-14T00:20:15.761Z,19.80
2023-02-14T00:23:18.051Z,20.33
2023-02-14T00:26:20.451Z,25.25
2023-02-14T00:29:29.132Z,16.40
2023-02-14T00:32:32.143Z,18.40
2023-02-14T00:36:07.269Z,18.20
2023-02-14T00:39:12.069Z,16.70
2023-02-14T00:42:14.953Z,18.35
2023-02-14T00:45:19.335Z,19.67
2023-02-14T00:48:21.819Z,16.33
2023-02-14T00:51:24.412Z,17.20
2023-02-14T00:54:26.961Z,15.85
2023-02-14T00:57:29.369Z,15.55
2023-02-14T01:00:32.909Z,18.92
2023-02-14T01:03:35.849Z,14.25
2023-02-14T01:06:38.744Z,19.80
2023-02-14T01:09:41.960Z,18.58
2023-02-14T01:12:44.390Z,11.57
2023-02-14T01:15:49.320Z,17.70
2023-02-14T01:18:52.156Z,17.38
2023-02-14T01:21:54.533Z,16.83
2023-02-14T01:24:58.210Z,15.45
2023-02-14T01:28:00.934Z,18.08
2023-02-14T01:31:12.790Z,21.35
2023-02-14T01:34:15.620Z,19.83
2023-02-14T01:37:18.150Z,19.13
2023-02-14T01:40:20.886Z,16.88
2023-02-14T01:43:23.797Z,18.77
2023-02-14T01:46:29.105Z,17.33
2023-02-14T01:49:48.698Z,22.55
2023-02-14T01:52:54.656Z,22.52
2023-02-14T01:56:05.801Z,19.15
2023-02-14T01:59:13.245Z,23.55
2023-02-14T02:02:23.897Z,19.85
2023-02-14T02:05:27.091Z,17.17
2023-02-14T02:08:30.096Z,17.90
2023-02-14T02:11:32.691Z,22.48
2023-02-14T02:14:35.821Z,24.23
2023-02-14T02:17:59.693Z,21.17
2023-02-14T02:21:18.375Z,15.68
2023-02-14T02:24:56.769Z,25.88
2023-02-14T02:28:32.673Z,22.38
2023-02-14T02:31:50.394Z,18.20
2023-02-14T02:35:18.595Z,23.00
2023-02-14T02:38:36.392Z,19.70
2023-02-14T02:41:57.313Z,17.73
2023-02-14T02:45:13.423Z,21.35
2023-02-14T02:48:20.930Z,20.88
2023-02-14T02:51:58.788Z,21.55
2023-02-14T02:55:06.055Z,23.98
2023-02-14T02:58:09.144Z,17.73
2023-02-14T03:01:24.788Z,21.02
2023-02-14T03:04:46.223Z,20.05
2023-02-14T03:07:49.782Z,21.50
2023-02-14T03:10:53.697Z,20.85
2023-02-14T03:14:09.373Z,18.17
2023-02-14T03:17:20.533Z,21.73
2023-02-14T03:20:38.033Z,21.85
2023-02-14T03:23:46.102Z,23.50
2023-02-14T03:26:57.511Z,28.83
2023-02-14T03:30:12.564Z,20.40
2023-02-14T03:33:21.716Z,18.75
2023-02-14T03:36:51.867Z,22.30
2023-02-14T03:40:07.536Z,20.73
2023-02-14T03:43:17.038Z,25.25
2023-02-14T03:46:27.640Z,22.50
2023-02-14T03:49:33.128Z,22.55
2023-02-14T03:52:36.794Z,18.67
2023-02-14T03:56:10.650Z,18.45
2023-02-14T03:59:20.164Z,26.35
2023-02-14T04:02:32.858Z,23.30
2023-02-14T04:05:35.606Z,26.15
2023-02-14T04:08:38.980Z,24.13
2023-02-14T04:11:41.680Z,19.27
2023-02-14T04:14:44.649Z,23.42
2023-02-14T04:18:05.866Z,21.48
2023-02-14T04:21:08.285Z,22.50
2023-02-14T04:24:10.836Z,25.73
2023-02-14T04:27:13.831Z,26.88
2023-02-14T04:30:18.281Z,23.13
2023-02-14T04:33:20.878Z,25.42
2023-02-14T04:36:23.350Z,24.60
2023-02-14T04:39:26.034Z,22.70
2023-02-14T04:42:28.487Z,24.98
2023-02-14T04:45:31.068Z,22.75
2023-02-14T04:48:33.610Z,21.25
2023-02-14T04:51:35.956Z,22.52
2023-02-14T04:54:38.385Z,17.40
2023-02-14T04:57:41.091Z,22.35
2023-02-14T05:00:43.730Z,23.08
2023-02-14T05:03:46.486Z,21.00
2023-02-14T05:06:48.978Z,19.38
2023-02-14T05:09:51.453Z,25.92
2023-02-14T05:12:54.040Z,22.42
2023-02-14T05:15:56.782Z,20.08
2023-02-14T05:18:59.353Z,19.20
2023-02-14T05:22:02.090Z,20.15
2023-02-14T05:25:04.495Z,17.15
2023-02-14T05:28:07.267Z,21.98
2023-02-14T05:31:10.289Z,23.33
2023-02-14T05:34:13.560Z,19.33
2023-02-14T05:37:15.913Z,17.87
2023-02-14T05:40:18.518Z,16.70
2023-02-14T05:43:21.832Z,22.02
2023-02-14T05:46:24.445Z,15.65
2023-02-14T05:49:26.877Z,19.95
2023-02-14T05:52:29.557Z,15.43
2023-02-14T05:55:32.424Z,21.10
2023-02-14T05:58:35.000Z,27.33
2023-02-14T06:01:37.447Z,23.15
2023-02-14T06:04:40.201Z,26.83
2023-02-14T06:07:43.755Z,17.80
2023-02-14T06:10:47.056Z,17.73
2023-02-14T06:13:49.608Z,13.65
2023-02-14T06:16:52.677Z,15.27
2023-02-14T06:19:55.160Z,17.27
2023-02-14T06:22:58.002Z,11.95
2023-02-14T06:26:00.598Z,14.32
2023-02-14T06:29:04.569Z,16.15
2023-02-14T06:32:07.469Z,14.52
2023-02-14T06:35:10.408Z,16.73
2023-02-14T06:38:12.841Z,15.73
2023-02-14T06:41:17.246Z,17.73
2023-02-14T06:44:20.125Z,15.18
2023-02-14T06:47:22.638Z,13.98
2023-02-14T06:50:25.093Z,10.52
2023-02-14T06:53:27.882Z,12.05
2023-02-14T06:56:30.220Z,17.20
2023-02-14T06:59:34.225Z,14.15
2023-02-14T07:05:39.389Z,19.08
2023-02-14T07:08:42.590Z,14.90
2023-02-14T07:11:46.445Z,15.33
2023-02-14T07:14:49.050Z,16.05
2023-02-14T07:17:51.654Z,23.95
2023-02-14T07:20:54.496Z,18.60
2023-02-14T07:23:57.013Z,18.58
2023-02-14T07:26:59.456Z,16.42
2023-02-14T07:30:02.407Z,13.70
2023-02-14T07:33:05.371Z,20.08
2023-02-14T07:36:09.383Z,23.90
2023-02-14T07:39:12.146Z,13.55
2023-02-14T07:42:14.876Z,15.75
2023-02-14T07:45:22.180Z,26.98
2023-02-14T07:48:25.505Z,23.42
2023-02-14T07:51:27.988Z,20.33
2023-02-14T07:54:30.418Z,16.17
2023-02-14T07:57:33.223Z,20.20
2023-02-14T08:00:36.261Z,20.20
2023-02-14T08:03:39.383Z,17.35
2023-02-14T08:06:42.962Z,13.30
2023-02-14T08:09:45.563Z,14.55
2023-02-14T08:13:00.422Z,14.38
2023-02-14T08:16:06.383Z,37.25
2023-02-14T08:19:09.219Z,13.35
2023-02-14T08:22:11.548Z,18.02
2023-02-14T08:25:13.861Z,14.02
2023-02-14T08:28:16.240Z,15.43
2023-02-14T08:31:35.063Z,12.98
2023-02-14T08:34:38.857Z,19.35
2023-02-14T08:37:41.653Z,16.45
2023-02-14T08:40:44.495Z,14.10
2023-02-14T08:43:46.952Z,21.88
2023-02-14T08:46:49.494Z,15.02
2023-02-14T08:49:52.096Z,11.43
2023-02-14T08:52:54.479Z,10.82
2023-02-14T08:55:56.997Z,12.13
2023-02-14T08:58:59.649Z,8.85
2023-02-14T09:02:02.088Z,11.88
2023-02-14T09:05:06.363Z,10.93
2023-02-14T09:08:08.975Z,11.45
2023-02-14T09:11:18.805Z,34.00
2023-02-14T09:14:21.938Z,20.13
2023-02-14T09:17:24.377Z,60.95
2023-02-14T09:20:27.107Z,18.25
2023-02-14T09:23:29.498Z,11.32
2023-02-14T09:26:34.881Z,19.08
2023-02-14T09:29:37.448Z,15.68
2023-02-14T09:32:39.851Z,21.13
2023-02-14T09:36:00.980Z,22.40
2023-02-14T09:39:03.753Z,18.50
2023-02-14T09:42:24.572Z,12.88
2023-02-14T09:45:28.840Z,9.60
2023-02-14T09:48:39.204Z,10.63
2023-02-14T09:51:48.923Z,16.77
2023-02-14T09:54:57.730Z,11.30
2023-02-14T09:58:13.699Z,11.88
2023-02-14T10:01:22.255Z,11.77
2023-02-14T10:04:27.713Z,10.82
2023-02-14T10:07:41.436Z,11.45
2023-02-14T10:10:45.639Z,13.20
2023-02-14T10:17:08.671Z,14.77
2023-02-14T10:20:31.314Z,9.98
2023-02-14T10:23:47.588Z,10.07
2023-02-14T10:26:51.381Z,11.90
2023-02-14T10:29:53.953Z,14.05
2023-02-14T10:33:18.169Z,10.38
2023-02-14T10:36:51.836Z,13.60
2023-02-14T10:40:30.080Z,11.10
2023-02-14T10:44:13.613Z,11.13
2023-02-14T10:47:41.657Z,9.57
2023-02-14T10:50:47.949Z,13.57
2023-02-14T10:54:22.169Z,10.70
2023-02-14T10:57:38.273Z,13.13
2023-02-14T11:00:48.549Z,11.85
2023-02-14T11:04:03.873Z,13.73
2023-02-14T11:07:13.515Z,9.48
2023-02-14T11:10:16.825Z,14.05
2023-02-14T11:13:36.252Z,11.07
2023-02-14T11:16:38.980Z,14.75
2023-02-14T11:19:41.389Z,14.18
2023-02-14T11:22:43.799Z,14.30
2023-02-14T11:25:51.364Z,11.07
2023-02-14T11:28:57.484Z,17.23
2023-02-14T11:32:11.654Z,14.40
2023-02-14T11:35:24.432Z,15.70
2023-02-14T11:38:35.928Z,11.27
2023-02-14T11:41:52.551Z,12.65
2023-02-14T11:44:56.688Z,12.68
2023-02-14T11:48:25.004Z,14.05
2023-02-14T11:51:42.028Z,12.90
2023-02-14T11:54:49.736Z,13.95
2023-02-14T11:57:52.502Z,12.57
2023-02-14T12:00:55.239Z,12.75
2023-02-14T12:04:00.971Z,15.80
2023-02-14T12:07:14.862Z,13.77
2023-02-14T12:10:24.159Z,13.80
2023-02-14T12:13:27.134Z,10.18
2023-02-14T12:16:41.046Z,9.73
2023-02-14T12:20:15.143Z,11.07
2023-02-14T12:23:38.881Z,8.18
2023-02-14T12:26:58.221Z,10.83
2023-02-14T12:30:12.798Z,15.50
2023-02-14T12:33:19.560Z,12.18
2023-02-14T12:36:40.172Z,11.23
2023-02-14T12:39:54.972Z,13.07
2023-02-14T12:43:21.259Z,12.60
2023-02-14T12:46:49.234Z,10.60
2023-02-14T12:50:28.700Z,12.60
2023-02-14T12:53:59.143Z,8.90
2023-02-14T12:57:27.841Z,16.13
2023-02-14T13:01:04.332Z,13.60
2023-02-14T13:04:15.710Z,13.88
2023-02-14T13:07:27.576Z,9.90
2023-02-14T13:10:57.553Z,8.77
2023-02-14T13:14:08.011Z,9.95
2023-02-14T13:17:19.170Z,10.55
2023-02-14T13:20:21.587Z,9.82
2023-02-14T13:23:40.424Z,7.07
2023-02-14T13:26:45.581Z,10.45
2023-02-14T13:29:51.205Z,12.95
2023-02-14T13:32:54.533Z,13.18
2023-02-14T13:36:02.753Z,10.70
2023-02-14T13:39:05.632Z,12.88
2023-02-14T13:42:08.300Z,10.02
2023-02-14T13:45:35.260Z,11.45
2023-02-14T13:48:39.145Z,9.38
2023-02-14T13:51:48.927Z,11.90
2023-02-14T13:54:51.404Z,11.60
2023-02-14T13:58:04.121Z,14.75
2023-02-14T14:01:34.398Z,12.25
2023-02-14T14:04:38.053Z,9.73
2023-02-14T14:07:40.409Z,13.35
2023-02-14T14:10:59.943Z,10.57
2023-02-14T14:14:04.793Z,11.18
2023-02-14T14:17:20.054Z,11.30
2023-02-14T14:20:23.324Z,8.82
2023-02-14T14:23:40.124Z,14.00
2023-02-14T14:26:59.070Z,8.95
2023-02-14T14:30:04.930Z,10.35
2023-02-14T14:33:29.145Z,14.73
2023-02-14T14:36:31.562Z,18.60
2023-02-14T14:39:35.797Z,10.57
2023-02-14T14:45:41.978Z,16.33
2023-02-14T14:48:51.987Z,7.57
2023-02-14T14:51:56.771Z,9.38
2023-02-14T14:55:00.210Z,8.98
2023-02-14T14:58:06.280Z,12.40
2023-02-14T15:01:14.418Z,11.52
2023-02-14T15:04:27.517Z,9.55
2023-02-14T15:07:36.730Z,10.13
2023-02-14T15:10:39.284Z,8.15
2023-02-14T15:13:50.842Z,11.07
2023-02-14T15:17:06.718Z,9.10
2023-02-14T15:20:18.757Z,10.50
2023-02-14T15:23:24.894Z,12.48
2023-02-14T15:26:38.092Z,16.40
2023-02-14T15:29:40.503Z,12.55
2023-02-14T15:32:43.072Z,16.10
2023-02-14T15:35:45.630Z,15.32
2023-02-14T15:38:48.289Z,14.82
2023-02-14T15:41:54.187Z,21.58
2023-02-14T15:45:22.818Z,18.17
2023-02-14T15:48:29.698Z,17.83
2023-02-14T15:51:33.552Z,19.40
2023-02-14T15:54:45.037Z,17.67
2023-02-14T15:57:55.217Z,15.10
2023-02-14T16:00:57.910Z,18.42
2023-02-14T16:04:03.529Z,16.73
2023-02-14T16:07:25.672Z,20.65
2023-02-14T16:10:38.666Z,22.70
2023-02-14T16:13:43.633Z,18.30
2023-02-14T16:17:24.825Z,20.17
2023-02-14T16:20:31.846Z,33.15
2023-02-14T16:23:37.027Z,22.20
2023-02-14T16:26:44.201Z,29.90
2023-02-14T16:29:46.594Z,28.73
2023-02-14T16:32:53.818Z,26.95
2023-02-14T16:36:01.488Z,29.08
2023-02-14T16:39:05.236Z,32.08
2023-02-14T16:42:14.615Z,33.08
2023-02-14T16:45:19.038Z,33.30
2023-02-14T16:48:21.864Z,39.78
2023-02-14T16:51:34.549Z,35.05
2023-02-14T16:54:37.632Z,29.38
2023-02-14T16:57:42.239Z,42.78
2023-02-14T17:00:44.783Z,80.05
2023-02-14T17:03:47.131Z,162.57
2023-02-14T17:06:55.044Z,58.15
2023-02-14T17:10:04.470Z,55.25
2023-02-14T17:13:07.506Z,48.63
2023-02-14T17:16:11.975Z,92.63
2023-02-14T17:19:14.813Z,75.93
2023-02-14T17:22:17.382Z,63.60
2023-02-14T17:25:19.857Z,59.45
2023-02-14T17:28:22.504Z,63.80
2023-02-14T17:31:25.231Z,58.88
2023-02-14T17:34:32.325Z,56.20
2023-02-14T17:37:35.439Z,55.17
2023-02-14T17:40:38.317Z,41.72
2023-02-14T17:43:41.005Z,38.10
2023-02-14T17:46:43.526Z,43.15
2023-02-14T17:49:49.554Z,41.55
2023-02-14T17:52:56.298Z,46.45
2023-02-14T17:55:59.024Z,47.03
2023-02-14T17:59:01.532Z,53.13
2023-02-14T18:02:04.215Z,50.08
2023-02-14T18:05:07.825Z,34.17
2023-02-14T18:08:10.309Z,34.53
2023-02-14T18:11:14.140Z,40.08
2023-02-14T18:14:16.608Z,33.42
2023-02-14T18:17:19.039Z,30.20
2023-02-14T18:20:21.564Z,31.50
2023-02-14T18:23:24.037Z,31.10
2023-02-14T18:26:27.010Z,26.63
2023-02-14T18:29:29.858Z,28.23
2023-02-14T18:32:32.355Z,32.17
2023-02-14T18:35:35.689Z,31.13
2023-02-14T18:38:38.614Z,30.98
2023-02-14T18:41:41.096Z,31.92
2023-02-14T18:44:45.005Z,36.45
2023-02-14T18:47:47.540Z,30.55
2023-02-14T18:50:51.872Z,39.83
2023-02-14T18:53:56.966Z,33.15
2023-02-14T18:56:59.772Z,31.52
2023-02-14T19:00:06.965Z,29.83
2023-02-14T19:03:09.443Z,38.97
2023-02-14T19:06:13.980Z,35.28
2023-02-14T19:09:18.794Z,40.63
2023-02-14T19:12:21.151Z,45.72
2023-02-14T19:15:23.723Z,45.97
2023-02-14T19:18:26.394Z,55.33
2023-02-14T19:21:31.806Z,55.97
2023-02-14T19:24:34.447Z,52.78
2023-02-14T19:27:37.400Z,54.17
2023-02-14T19:30:39.917Z,53.63
2023-02-14T19:33:44.812Z,45.28
2023-02-14T19:36:47.979Z,44.88
2023-02-14T19:39:51.258Z,37.80
2023-02-14T19:42:53.993Z,56.20
2023-02-14T19:45:56.680Z,53.20
2023-02-14T19:48:59.744Z,109.28
2023-02-14T19:52:06.310Z,144.95
2023-02-14T19:55:21.711Z,147.25
2023-02-14T19:58:26.107Z,176.65
2023-02-14T20:01:32.563Z,173.48
2023-02-14T20:04:34.971Z,178.88
2023-02-14T20:07:37.462Z,168.40
2023-02-14T20:10:40.055Z,134.98
2023-02-14T20:13:42.594Z,116.63
2023-02-14T20:16:46.038Z,186.13
2023-02-14T20:19:49.122Z,210.18
2023-02-14T20:22:51.799Z,212.93
2023-02-14T20:25:54.248Z,207.25
2023-02-14T20:28:59.488Z,153.57
2023-02-14T20:32:04.976Z,137.02
2023-02-14T20:35:07.800Z,122.78
2023-02-14T20:38:10.984Z,129.98
2023-02-14T20:41:16.736Z,89.20
2023-02-14T20:44:21.760Z,93.43
2023-02-14T20:47:24.466Z,69.85
2023-02-14T20:50:26.863Z,51.60
2023-02-14T20:53:29.191Z,49.53
2023-02-14T20:56:31.516Z,62.83
2023-02-14T20:59:33.950Z,76.18
2023-02-14T21:02:36.302Z,79.25
2023-02-14T21:05:38.678Z,74.15
2023-02-14T21:08:42.652Z,59.00
2023-02-14T21:14:47.400Z,53.90
2023-02-14T21:17:49.794Z,62.33
2023-02-14T21:20:52.175Z,61.00
2023-02-14T21:23:54.621Z,45.47
2023-02-14T21:26:57.041Z,44.13
2023-02-14T21:29:59.540Z,44.53
2023-02-14T21:33:02.400Z,61.53
2023-02-14T21:36:15.585Z,64.55
2023-02-14T21:39:19.092Z,50.47
2023-02-14T21:42:21.669Z,52.20
2023-02-14T21:45:42.856Z,45.80
2023-02-14T21:49:04.820Z,43.88
2023-02-14T21:52:07.236Z,54.40
2023-02-14T21:55:09.980Z,59.40
2023-02-14T21:58:15.296Z,54.88
2023-02-14T22:01:21.782Z,60.35
2023-02-14T22:04:24.730Z,49.33
2023-02-14T22:07:30.349Z,43.03
2023-02-14T22:10:32.860Z,49.00
2023-02-14T22:13:35.640Z,44.00
2023-02-14T22:16:38.300Z,59.05
2023-02-14T22:19:41.254Z,43.42
2023-02-14T22:22:43.652Z,44.30
2023-02-14T22:25:46.230Z,48.42
2023-02-14T22:28:49.928Z,65.18
2023-02-14T22:31:52.688Z,51.28
2023-02-14T22:34:55.165Z,56.13
2023-02-14T22:37:57.687Z,49.53
2023-02-14T22:41:06.848Z,49.95
2023-02-14T22:44:09.816Z,48.03
2023-02-14T22:47:12.127Z,46.92
2023-02-14T22:50:14.756Z,61.78
2023-02-14T22:53:17.270Z,57.47
2023-02-14T22:56:28.681Z,60.72
2023-02-14T22:59:32.309Z,59.72
2023-02-14T23:02:35.063Z,54.20
2023-02-14T23:05:37.594Z,62.90
2023-02-14T23:08:45.038Z,70.30
2023-02-14T23:11:47.537Z,66.43
2023-02-14T23:15:08.663Z,64.20
2023-02-14T23:18:31.808Z,66.65
2023-02-14T23:21:53.173Z,54.92
2023-02-14T23:24:57.573Z,60.33
2023-02-14T23:27:59.992Z,56.47
2023-02-14T23:31:03.112Z,62.17
2023-02-14T23:34:05.457Z,46.80
2023-02-14T23:37:08.646Z,62.28
2023-02-14T23:40:11.439Z,58.78
2023-02-14T23:43:13.878Z,58.67
2023-02-14T23:46:16.521Z,67.35
2023-02-14T23:49:19.436Z,67.75
2023-02-14T23:52:21.859Z,62.05
2023-02-14T23:55:24.182Z,69.35
2023-02-14T23:58:26.494Z,79.03
